Time;durP1;ratioP1;P1;durP2;ratioP2;P2;SDS_P1;SDS_P2;PMS_P1;PMS_P2;Temp;Humidity;BMP_temperature;BMP_pressure;BME280_temperature;BME280_humidity;BME280_pressure;Samples;Min_cycle;Max_cycle;Signal;HPM_P1;HPM_P2
2022/11/18 00:02:07;;;;;;;5.90;3.60;;;5.00;99.90;;;;;;5093126;28;20448;-52
2022/11/18 00:04:34;;;;;;;12.03;3.07;;;5.00;99.90;;;;;;5092832;28;20471;-51
2022/11/18 00:07:00;;;;;;;6.30;3.10;;;4.60;99.90;;;;;;5093097;28;20474;-51
2022/11/18 00:09:27;;;;;;;3.47;3.10;;;4.40;99.90;;;;;;5092595;28;20442;-52
2022/11/18 00:14:40;;;;;;;3.80;2.90;;;4.40;99.90;;;;;;5092148;28;20809;-52
2022/11/18 00:17:07;;;;;;;3.53;3.17;;;4.70;99.90;;;;;;5092854;28;20448;-52
2022/11/18 00:19:36;;;;;;;4.30;3.50;;;4.80;99.90;;;;;;5092691;28;20538;-52
2022/11/18 00:22:04;;;;;;;4.00;3.60;;;4.70;99.90;;;;;;5092386;28;20446;-52
2022/11/18 00:24:31;;;;;;;4.03;3.60;;;4.80;99.90;;;;;;5091534;28;20465;-51
2022/11/18 00:26:58;;;;;;;3.87;3.47;;;4.60;99.90;;;;;;5092722;28;21065;-51
2022/11/18 00:29:27;;;;;;;4.57;2.90;;;4.70;99.90;;;;;;5092355;28;20533;-51
2022/11/18 00:31:55;;;;;;;2.73;2.37;;;4.80;99.90;;;;;;5092385;28;20820;-51
2022/11/18 00:34:22;;;;;;;3.70;3.00;;;4.80;99.90;;;;;;5091965;28;20524;-51
2022/11/18 00:36:49;;;;;;;3.97;2.60;;;4.30;99.90;;;;;;5092365;28;20975;-51
2022/11/18 00:39:17;;;;;;;3.67;2.83;;;4.50;99.90;;;;;;5092203;28;20451;-51
2022/11/18 00:44:28;;;;;;;2.17;1.93;;;4.70;99.90;;;;;;5092183;28;20420;-51
2022/11/18 00:46:57;;;;;;;3.87;2.07;;;4.60;99.90;;;;;;5091436;28;20922;-51
2022/11/18 00:49:24;;;;;;;3.20;2.80;;;4.40;99.90;;;;;;5092013;28;20525;-52
2022/11/18 00:51:51;;;;;;;2.10;1.83;;;4.70;99.90;;;;;;5092145;28;20525;-51
2022/11/18 00:54:18;;;;;;;4.07;2.20;;;4.70;99.90;;;;;;5091821;28;20467;-53
2022/11/18 00:56:45;;;;;;;2.10;1.73;;;5.00;99.90;;;;;;5092135;28;20934;-51
2022/11/18 00:59:12;;;;;;;2.73;1.83;;;5.10;99.90;;;;;;5091841;28;20455;-51
2022/11/18 01:01:38;;;;;;;2.63;1.80;;;4.90;99.90;;;;;;5091525;28;20792;-52
2022/11/18 01:04:07;;;;;;;2.70;1.53;;;4.70;99.90;;;;;;5091475;28;20853;-51
2022/11/18 01:06:34;;;;;;;2.70;1.70;;;4.80;99.90;;;;;;5091918;28;20565;-51
2022/11/18 01:09:00;;;;;;;1.80;1.57;;;5.00;99.90;;;;;;5091375;28;21019;-51
2022/11/18 01:14:12;;;;;;;2.97;1.80;;;4.80;99.90;;;;;;5091355;28;20439;-51
2022/11/18 01:16:38;;;;;;;2.67;1.50;;;4.50;99.90;;;;;;5092050;28;20526;-51
2022/11/18 01:19:06;;;;;;;2.93;1.80;;;4.10;99.90;;;;;;5091442;28;20470;-51
2022/11/18 01:21:33;;;;;;;3.50;2.00;;;4.10;99.90;;;;;;5091873;28;20446;-51
2022/11/18 01:24:00;;;;;;;2.07;1.97;;;4.50;99.90;;;;;;5091391;28;20450;-51
2022/11/18 01:26:27;;;;;;;3.13;2.70;;;4.60;99.90;;;;;;5091483;28;20497;-52
2022/11/18 01:28:56;;;;;;;3.03;2.77;;;4.70;99.90;;;;;;5091365;28;20445;-51
2022/11/18 01:31:23;;;;;;;6.50;6.00;;;4.60;99.90;;;;;;5091854;28;20447;-51
2022/11/18 01:33:50;;;;;;;3.27;3.07;;;4.60;99.90;;;;;;5091264;28;21022;-51
2022/11/18 01:36:20;;;;;;;3.27;2.50;;;4.60;99.90;;;;;;5091383;28;20461;-52
2022/11/18 01:38:47;;;;;;;3.20;2.67;;;4.70;99.90;;;;;;5091435;28;20454;-53
2022/11/18 01:41:15;;;;;;;3.63;2.20;;;4.80;99.90;;;;;;5091285;28;20534;-51
2022/11/18 01:43:50;;;;;;;3.73;3.43;;;4.70;99.90;;;;;;5091449;28;20986;-51
2022/11/18 01:46:17;;;;;;;2.83;2.63;;;4.40;99.90;;;;;;5091240;28;20481;-52
2022/11/18 01:48:46;;;;;;;2.07;1.80;;;4.30;99.90;;;;;;5091143;28;20538;-52
2022/11/18 01:51:16;;;;;;;2.10;1.90;;;4.30;99.90;;;;;;5091484;28;20500;-51
2022/11/18 01:53:49;;;;;;;2.20;1.90;;;4.50;99.90;;;;;;5090818;28;20445;-51
2022/11/18 01:56:20;;;;;;;3.33;2.00;;;4.60;99.90;;;;;;5091014;28;20458;-52
2022/11/18 01:58:50;;;;;;;1.73;1.40;;;4.50;99.90;;;;;;5091742;28;20530;-52
2022/11/18 02:01:16;;;;;;;2.50;2.00;;;4.60;99.90;;;;;;5091054;28;20553;-51
2022/11/18 02:03:46;;;;;;;2.20;1.90;;;4.80;99.90;;;;;;5090886;28;20531;-51
2022/11/18 02:06:13;;;;;;;3.20;1.97;;;4.90;99.90;;;;;;5090946;28;20484;-51
2022/11/18 02:08:41;;;;;;;2.27;1.60;;;4.60;99.90;;;;;;5090667;28;20449;-51
2022/11/18 02:11:49;;;;;;;2.47;1.50;;;4.60;99.90;;;;;;5091051;28;20477;-51
2022/11/18 02:14:01;;;;;;;2.67;1.73;;;4.80;99.90;;;;;;5090585;28;20447;-51
2022/11/18 02:16:38;;;;;;;2.10;1.77;;;4.70;99.90;;;;;;5093430;28;20473;-51
2022/11/18 02:19:16;;;;;;;3.50;1.57;;;4.70;99.90;;;;;;5095334;28;20718;-51
2022/11/18 02:21:56;;;;;;;1.37;1.03;;;4.80;99.90;;;;;;5095172;28;20519;-51
2022/11/18 02:24:35;;;;;;;2.13;1.40;;;4.10;99.90;;;;;;5095035;28;20444;-51
2022/11/18 02:27:39;;;;;;;2.80;1.80;;;3.80;99.90;;;;;;5152590;22;20580;-47
2022/11/18 02:30:09;;;;;;;2.17;1.50;;;3.90;99.90;;;;;;5094823;28;21016;-45
2022/11/18 02:32:43;;;;;;;2.00;1.80;;;4.30;99.90;;;;;;5094914;28;20471;-46
2022/11/18 02:35:15;;;;;;;2.47;2.13;;;4.40;99.90;;;;;;5094145;28;20525;-46
2022/11/18 02:37:47;;;;;;;2.30;1.70;;;4.50;99.90;;;;;;5094701;28;20435;-46
2022/11/18 02:40:19;;;;;;;2.40;1.70;;;4.60;99.90;;;;;;5094793;28;20464;-46
2022/11/18 02:42:52;;;;;;;2.00;1.30;;;4.70;99.90;;;;;;5094855;28;20451;-46
2022/11/18 02:45:22;;;;;;;2.83;1.70;;;4.80;99.90;;;;;;5094607;28;20550;-46
2022/11/18 02:47:50;;;;;;;1.60;1.20;;;4.80;99.90;;;;;;5094412;28;20561;-47
2022/11/18 02:50:20;;;;;;;2.40;1.90;;;4.90;99.90;;;;;;5094441;28;21011;-46
2022/11/18 02:52:52;;;;;;;4.10;1.70;;;4.90;99.90;;;;;;5094894;28;20948;-46
2022/11/18 02:55:20;;;;;;;2.13;1.77;;;5.00;99.90;;;;;;5094587;28;20543;-46
2022/11/18 02:57:48;;;;;;;2.17;1.47;;;5.00;99.90;;;;;;5093969;28;20938;-45
2022/11/18 03:00:16;;;;;;;2.50;2.00;;;5.00;99.90;;;;;;5094076;28;20533;-47
2022/11/18 03:02:46;;;;;;;1.40;1.10;;;4.90;99.90;;;;;;5094265;28;20450;-47
2022/11/18 03:05:19;;;;;;;1.63;1.20;;;4.60;99.90;;;;;;5093973;28;21015;-47
2022/11/18 03:07:51;;;;;;;2.10;1.60;;;4.10;99.90;;;;;;5093915;28;20562;-47
2022/11/18 03:10:21;;;;;;;3.87;1.83;;;4.20;99.90;;;;;;5094331;28;20442;-46
2022/11/18 03:13:01;;;;;;;3.73;2.43;;;4.30;99.90;;;;;;5094387;28;20528;-47
2022/11/18 03:15:36;;;;;;;2.30;2.10;;;4.30;99.90;;;;;;5093731;28;20544;-47
2022/11/18 03:18:15;;;;;;;2.70;2.07;;;3.70;99.90;;;;;;5094191;28;20948;-46
2022/11/18 03:20:48;;;;;;;4.63;1.53;;;3.60;99.90;;;;;;5094167;28;20438;-46
2022/11/18 03:23:21;;;;;;;2.20;1.40;;;3.60;99.90;;;;;;5093604;28;20533;-47
2022/11/18 03:25:51;;;;;;;2.50;2.30;;;3.60;99.90;;;;;;5093961;28;20472;-47
2022/11/18 03:28:23;;;;;;;4.83;3.57;;;3.10;99.90;;;;;;5092454;28;20477;-47
2022/11/18 03:30:56;;;;;;;6.37;3.00;;;3.00;99.90;;;;;;5093790;28;20527;-46
2022/11/18 03:33:31;;;;;;;3.20;2.30;;;3.20;99.90;;;;;;5093947;28;20537;-46
2022/11/18 03:36:01;;;;;;;2.03;1.83;;;3.50;99.90;;;;;;5093877;28;20498;-47
2022/11/18 03:38:31;;;;;;;3.73;2.30;;;3.70;99.90;;;;;;5093542;28;20436;-46
2022/11/18 03:41:01;;;;;;;2.20;1.70;;;3.70;99.90;;;;;;5093757;28;20490;-46
2022/11/18 03:43:34;;;;;;;3.67;1.90;;;3.90;99.90;;;;;;5093187;28;20535;-47
2022/11/18 03:46:07;;;;;;;3.63;1.90;;;4.00;99.90;;;;;;5093758;28;20491;-49
2022/11/18 03:48:41;;;;;;;2.70;1.50;;;4.10;99.90;;;;;;5093575;28;20437;-46
2022/11/18 03:51:11;;;;;;;1.73;1.53;;;4.10;99.90;;;;;;5093278;28;20439;-47
2022/11/18 03:53:41;;;;;;;1.73;1.43;;;4.40;99.90;;;;;;5093749;28;20833;-48
2022/11/18 03:56:12;;;;;;;1.40;1.10;;;4.00;99.90;;;;;;5093171;28;20548;-48
2022/11/18 03:58:46;;;;;;;2.03;1.53;;;4.00;99.90;;;;;;5093426;28;20441;-47
2022/11/18 04:01:17;;;;;;;3.10;2.80;;;4.10;99.90;;;;;;5093071;28;20436;-47
2022/11/18 04:03:46;;;;;;;6.63;5.93;;;4.00;99.90;;;;;;5092583;28;21022;-46
2022/11/18 04:06:21;;;;;;;3.30;3.00;;;4.20;99.90;;;;;;5093006;28;20817;-47
2022/11/18 04:08:55;;;;;;;4.07;3.17;;;4.20;99.90;;;;;;5093070;28;20523;-46
2022/11/18 04:14:13;;;;;;;1.87;1.37;;;4.30;99.90;;;;;;5092380;28;20960;-48
2022/11/18 04:16:41;;;;;;;4.03;2.03;;;4.50;99.90;;;;;;5092953;28;20889;-48
2022/11/18 04:19:09;;;;;;;4.33;1.93;;;4.50;99.90;;;;;;5093157;28;20442;-47
2022/11/18 04:21:36;;;;;;;2.37;1.83;;;4.60;99.90;;;;;;5092717;28;20445;-46
2022/11/18 04:24:04;;;;;;;2.83;2.00;;;4.70;99.90;;;;;;5092874;28;20537;-48
2022/11/18 04:26:31;;;;;;;4.23;2.67;;;4.60;99.90;;;;;;5092550;28;20556;-46
2022/11/18 04:28:58;;;;;;;8.60;4.20;;;4.40;99.90;;;;;;5092197;28;20444;-48
2022/11/18 04:31:25;;;;;;;16.33;10.10;;;4.40;99.90;;;;;;5092531;28;20449;-47
2022/11/18 04:33:51;;;;;;;4.80;2.77;;;4.50;99.90;;;;;;5092550;28;20537;-47
2022/11/18 04:36:20;;;;;;;2.10;1.90;;;4.60;99.90;;;;;;5092646;28;20496;-47
2022/11/18 04:38:46;;;;;;;8.13;2.03;;;4.50;99.90;;;;;;5092039;28;20827;-47
2022/11/18 04:41:13;;;;;;;3.03;1.83;;;4.30;99.90;;;;;;5092138;28;20525;-48
2022/11/18 04:43:41;;;;;;;4.90;2.90;;;4.50;99.90;;;;;;5092394;28;20747;-47
2022/11/18 04:46:08;;;;;;;3.33;2.50;;;4.40;99.90;;;;;;5092370;28;20554;-46
2022/11/18 04:48:35;;;;;;;6.30;2.50;;;4.50;99.90;;;;;;5092297;28;20565;-48
2022/11/18 04:51:03;;;;;;;2.67;1.50;;;4.60;99.90;;;;;;5092410;28;20534;-46
2022/11/18 04:53:32;;;;;;;1.63;1.50;;;4.60;99.90;;;;;;5091873;28;20468;-47
2022/11/18 04:56:05;;;;;;;2.33;1.60;;;4.60;99.90;;;;;;5091760;28;20466;-47
2022/11/18 04:58:32;;;;;;;5.23;1.63;;;4.70;99.90;;;;;;5092415;28;20438;-48
2022/11/18 05:00:59;;;;;;;1.87;1.57;;;4.80;99.90;;;;;;5091264;28;20817;-47
2022/11/18 05:03:26;;;;;;;2.90;2.60;;;4.80;99.90;;;;;;5091654;28;20483;-47
2022/11/18 05:05:53;;;;;;;3.80;2.73;;;4.80;99.90;;;;;;5092075;28;20460;-48
2022/11/18 05:08:20;;;;;;;3.97;3.67;;;4.70;99.90;;;;;;5092089;28;20573;-47
2022/11/18 05:10:48;;;;;;;3.77;3.00;;;4.60;99.90;;;;;;5091807;28;20541;-48
2022/11/18 05:13:14;;;;;;;13.20;7.70;;;4.60;99.90;;;;;;5091409;28;20452;-46
2022/11/18 05:15:40;;;;;;;6.70;4.50;;;4.50;99.90;;;;;;5091213;28;20540;-49
2022/11/18 05:18:10;;;;;;;5.37;3.87;;;4.30;99.90;;;;;;5091909;28;20558;-47
2022/11/18 05:20:37;;;;;;;7.00;5.77;;;4.30;99.90;;;;;;5091438;28;20448;-46
2022/11/18 05:23:04;;;;;;;9.93;8.50;;;4.50;99.90;;;;;;5091951;28;20443;-46
2022/11/18 05:25:31;;;;;;;20.90;9.87;;;4.70;99.90;;;;;;5091699;28;20509;-48
2022/11/18 05:27:59;;;;;;;13.63;9.37;;;4.80;99.90;;;;;;5091344;28;20496;-46
2022/11/18 05:30:26;;;;;;;10.97;5.87;;;4.70;99.90;;;;;;5091561;28;20531;-46
2022/11/18 05:32:53;;;;;;;6.20;4.73;;;4.30;99.90;;;;;;5090915;28;20447;-46
2022/11/18 05:35:20;;;;;;;4.83;4.43;;;3.80;99.90;;;;;;5091618;28;20555;-48
2022/11/18 05:37:46;;;;;;;7.47;6.87;;;3.80;99.90;;;;;;5091448;28;20874;-45
2022/11/18 05:40:13;;;;;;;5.47;4.80;;;4.30;99.90;;;;;;5091794;28;20448;-47
2022/11/18 05:45:26;;;;;;;8.43;7.63;;;4.50;99.90;;;;;;5091443;28;20602;-47
2022/11/18 05:48:03;;;;;;;8.13;6.50;;;4.30;99.90;;;;;;5091488;28;20845;-47
2022/11/18 05:50:30;;;;;;;5.67;5.07;;;3.50;99.90;;;;;;5090995;28;20457;-47
2022/11/18 05:52:57;;;;;;;8.50;5.00;;;3.40;99.90;;;;;;5091350;28;20542;-49
2022/11/18 05:55:29;;;;;;;7.33;5.30;;;3.10;99.90;;;;;;5091260;28;20470;-46
2022/11/18 05:57:56;;;;;;;6.00;4.00;;;2.90;99.90;;;;;;5091542;28;20432;-46
2022/11/18 06:00:23;;;;;;;5.77;4.73;;;2.90;99.90;;;;;;5091210;28;20440;-46
2022/11/18 06:02:53;;;;;;;3.20;2.10;;;3.10;99.90;;;;;;5091217;28;20440;-47
2022/11/18 06:05:22;;;;;;;3.67;2.63;;;3.50;99.90;;;;;;5090981;28;20543;-48
2022/11/18 06:07:48;;;;;;;4.53;2.50;;;3.90;99.90;;;;;;5091007;28;20476;-46
2022/11/18 06:10:18;;;;;;;2.57;2.07;;;4.20;99.90;;;;;;5091346;28;20540;-47
2022/11/18 06:12:49;;;;;;;5.40;3.60;;;4.40;99.90;;;;;;5091315;28;20535;-47
2022/11/18 06:15:19;;;;;;;5.20;3.83;;;4.50;99.90;;;;;;5090441;28;20933;-47
2022/11/18 06:17:50;;;;;;;5.13;4.60;;;4.40;99.90;;;;;;5091624;28;20868;-47
2022/11/18 06:20:21;;;;;;;5.43;4.80;;;4.40;99.90;;;;;;5091206;28;20456;-47
2022/11/18 06:22:50;;;;;;;4.40;3.50;;;4.60;99.90;;;;;;5091139;28;20522;-47
2022/11/18 06:25:17;;;;;;;4.00;3.70;;;4.70;99.90;;;;;;5090451;28;20551;-49
2022/11/18 06:27:45;;;;;;;5.00;3.23;;;4.80;99.90;;;;;;5090133;28;20469;-46
2022/11/18 06:30:13;;;;;;;4.00;2.20;;;4.80;99.90;;;;;;5090894;28;20525;-46
2022/11/18 06:32:40;;;;;;;3.30;2.47;;;4.80;99.90;;;;;;5091056;28;20537;-47
2022/11/18 06:35:08;;;;;;;2.10;1.80;;;4.90;99.90;;;;;;5090563;28;20452;-47
2022/11/18 06:37:36;;;;;;;4.70;2.80;;;5.00;99.90;;;;;;5090834;28;20439;-46
2022/11/18 06:40:03;;;;;;;6.97;3.60;;;5.00;99.90;;;;;;5090531;28;20448;-47
2022/11/18 06:45:14;;;;;;;4.93;4.00;;;4.70;99.90;;;;;;5090669;28;20429;-47
2022/11/18 06:47:41;;;;;;;3.90;3.50;;;4.40;99.90;;;;;;5090972;28;20560;-47
2022/11/18 06:50:09;;;;;;;4.23;3.83;;;4.30;99.90;;;;;;5091145;28;20533;-50
2022/11/18 06:52:37;;;;;;;4.30;3.90;;;4.40;99.90;;;;;;5090929;28;20539;-47
2022/11/18 06:55:07;;;;;;;4.40;4.00;;;4.60;99.90;;;;;;5090862;28;20443;-46
2022/11/18 06:57:33;;;;;;;4.10;3.40;;;4.70;99.90;;;;;;5091116;28;20800;-46
2022/11/18 07:00:00;;;;;;;3.33;3.00;;;4.50;99.90;;;;;;5090468;28;20446;-46
2022/11/18 07:02:27;;;;;;;4.10;3.67;;;4.50;99.90;;;;;;5093068;28;20535;-48
2022/11/18 07:04:54;;;;;;;5.37;4.03;;;4.70;99.90;;;;;;5094074;28;20530;-47
2022/11/18 07:07:21;;;;;;;4.43;3.40;;;4.70;99.90;;;;;;5094189;28;20467;-46
2022/11/18 07:09:49;;;;;;;5.47;3.23;;;4.40;99.90;;;;;;5094477;28;20451;-48
2022/11/18 07:12:16;;;;;;;2.83;2.50;;;4.20;99.90;;;;;;5094230;28;20942;-49
2022/11/18 07:14:43;;;;;;;2.97;2.50;;;4.40;99.90;;;;;;5094037;28;20440;-47
2022/11/18 07:17:10;;;;;;;2.90;2.53;;;4.60;99.90;;;;;;5094185;28;20465;-47
2022/11/18 07:19:36;;;;;;;2.57;2.37;;;4.50;99.90;;;;;;5094031;28;21012;-47
2022/11/18 07:22:03;;;;;;;3.03;2.17;;;4.60;99.90;;;;;;5093890;28;20447;-47
2022/11/18 07:24:30;;;;;;;3.10;2.10;;;4.70;99.90;;;;;;5093876;28;20731;-47
2022/11/18 07:26:58;;;;;;;2.10;1.90;;;4.70;99.90;;;;;;5093793;28;20467;-47
2022/11/18 07:29:25;;;;;;;7.80;4.80;;;5.00;99.90;;;;;;5093973;28;20472;-47
2022/11/18 07:31:52;;;;;;;14.03;9.00;;;5.10;99.90;;;;;;5093997;28;20788;-46
2022/11/18 07:34:19;;;;;;;9.63;7.80;;;5.20;99.90;;;;;;5093643;28;20453;-47
2022/11/18 07:36:45;;;;;;;7.30;5.27;;;5.30;99.90;;;;;;5093675;28;20834;-47
2022/11/18 07:39:12;;;;;;;5.40;4.13;;;5.40;99.90;;;;;;5093693;28;20440;-47
2022/11/18 07:41:40;;;;;;;5.10;3.50;;;5.30;99.90;;;;;;5093863;28;20441;-47
2022/11/18 07:44:12;;;;;;;6.90;3.50;;;5.30;99.90;;;;;;5093398;28;21007;-47
2022/11/18 07:46:39;;;;;;;4.17;3.57;;;5.30;99.90;;;;;;5093699;28;20458;-47
2022/11/18 07:49:08;;;;;;;4.03;3.63;;;5.40;99.90;;;;;;5093338;28;20865;-47
2022/11/18 07:51:37;;;;;;;4.23;3.83;;;5.50;99.90;;;;;;5093588;28;20439;-47
2022/11/18 07:54:07;;;;;;;4.20;2.90;;;5.50;99.90;;;;;;5093225;28;20543;-47
2022/11/18 07:56:34;;;;;;;4.97;4.47;;;5.50;99.90;;;;;;5093182;28;20553;-47
2022/11/18 07:59:00;;;;;;;5.00;3.67;;;5.60;99.90;;;;;;5093272;28;20522;-49
2022/11/18 08:01:29;;;;;;;3.70;3.10;;;5.60;99.90;;;;;;5093616;28;20554;-47
2022/11/18 08:03:57;;;;;;;4.53;3.93;;;5.60;99.90;;;;;;5093322;28;20452;-46
2022/11/18 08:06:24;;;;;;;6.63;4.40;;;5.70;99.90;;;;;;5093264;28;20490;-47
2022/11/18 08:08:50;;;;;;;5.73;4.73;;;5.70;99.90;;;;;;5093100;28;20497;-46
2022/11/18 08:11:19;;;;;;;6.30;4.10;;;5.70;99.90;;;;;;5093124;28;20443;-48
2022/11/18 08:13:46;;;;;;;8.20;6.23;;;5.80;99.90;;;;;;5092297;28;20440;-48
2022/11/18 08:16:15;;;;;;;7.20;6.33;;;5.80;99.90;;;;;;5093181;28;20467;-46
2022/11/18 08:18:43;;;;;;;7.17;5.43;;;5.90;99.90;;;;;;5093063;28;20848;-47
2022/11/18 08:21:10;;;;;;;9.17;7.50;;;5.80;99.90;;;;;;5092900;28;20530;-46
2022/11/18 08:23:37;;;;;;;7.63;6.03;;;5.80;99.90;;;;;;5092555;28;20530;-47
2022/11/18 08:26:06;;;;;;;5.50;4.80;;;5.70;99.90;;;;;;5093958;28;20478;-47
2022/11/18 08:28:35;;;;;;;7.60;5.20;;;5.70;99.90;;;;;;5093089;28;20505;-48
2022/11/18 08:31:09;;;;;;;6.80;5.57;;;5.60;99.90;;;;;;5092989;28;20963;-47
2022/11/18 08:33:36;;;;;;;6.57;5.17;;;5.40;99.90;;;;;;5092427;28;20528;-47
2022/11/18 08:36:08;;;;;;;7.80;5.50;;;5.30;99.90;;;;;;5092663;28;21047;-49
2022/11/18 08:38:35;;;;;;;6.33;5.13;;;5.60;99.90;;;;;;5092453;28;20439;-47
2022/11/18 08:41:04;;;;;;;5.10;4.60;;;5.60;99.90;;;;;;5092450;28;20440;-47
2022/11/18 08:43:31;;;;;;;11.37;7.33;;;5.70;99.90;;;;;;5092276;28;20456;-49
2022/11/18 08:45:58;;;;;;;6.20;5.60;;;5.80;99.90;;;;;;5092309;28;20555;-47
2022/11/18 08:48:25;;;;;;;7.07;6.20;;;5.70;99.90;;;;;;5092223;28;20843;-47
2022/11/18 08:50:52;;;;;;;9.00;6.17;;;5.40;99.90;;;;;;5092438;28;20449;-48
2022/11/18 08:53:20;;;;;;;6.17;5.57;;;5.10;99.90;;;;;;5092169;28;20441;-47
2022/11/18 08:55:47;;;;;;;6.20;5.60;;;5.10;99.90;;;;;;5092234;28;20549;-47
2022/11/18 08:58:14;;;;;;;6.53;5.60;;;5.40;99.90;;;;;;5092298;28;20471;-47
2022/11/18 09:00:41;;;;;;;5.63;4.97;;;5.50;99.90;;;;;;5092022;28;20875;-47
2022/11/18 09:03:08;;;;;;;5.97;5.47;;;5.60;99.90;;;;;;5092003;28;20541;-46
2022/11/18 09:05:35;;;;;;;6.87;5.93;;;5.60;99.90;;;;;;5092131;28;20472;-47
2022/11/18 09:08:02;;;;;;;6.80;5.70;;;5.70;99.90;;;;;;5092049;28;20471;-47
2022/11/18 09:10:30;;;;;;;6.63;5.93;;;5.70;99.90;;;;;;5092027;28;20470;-46
2022/11/18 09:12:57;;;;;;;6.23;4.80;;;5.70;99.90;;;;;;5091811;28;21019;-47
2022/11/18 09:15:25;;;;;;;7.53;4.93;;;5.70;99.90;;;;;;5091653;28;20976;-49
2022/11/18 09:17:51;;;;;;;5.00;4.57;;;5.90;99.90;;;;;;5091858;28;20451;-47
2022/11/18 09:20:19;;;;;;;6.17;4.63;;;6.00;99.90;;;;;;5092047;28;20440;-47
2022/11/18 09:22:45;;;;;;;6.80;4.93;;;5.90;99.90;;;;;;5091890;28;20519;-46
2022/11/18 09:25:12;;;;;;;5.03;4.50;;;5.90;99.90;;;;;;5090278;28;20522;-47
2022/11/18 09:27:40;;;;;;;4.70;4.17;;;6.00;99.90;;;;;;5091626;28;20443;-46
2022/11/18 09:30:09;;;;;;;11.17;5.50;;;6.00;99.90;;;;;;5091555;28;20468;-46
2022/11/18 09:32:35;;;;;;;8.43;4.90;;;6.00;99.90;;;;;;5091403;28;20858;-47
2022/11/18 09:35:02;;;;;;;13.53;5.50;;;5.90;99.90;;;;;;5091513;28;20440;-46
2022/11/18 09:37:29;;;;;;;5.93;4.33;;;5.90;99.90;;;;;;5091766;28;20471;-48
2022/11/18 09:39:56;;;;;;;4.90;4.50;;;5.90;99.90;;;;;;5091147;28;20967;-46
2022/11/18 09:42:39;;;;;;;5.90;4.50;;;5.90;99.90;;;;;;5091670;28;20523;-47
2022/11/18 09:45:17;;;;;;;5.50;4.70;;;5.90;99.90;;;;;;5091284;28;21019;-46
2022/11/18 09:47:44;;;;;;;4.73;4.10;;;5.90;99.90;;;;;;5091378;28;20815;-47
2022/11/18 09:50:13;;;;;;;5.90;4.53;;;5.90;99.90;;;;;;5091821;28;20476;-46
2022/11/18 09:52:46;;;;;;;4.60;4.20;;;6.00;99.90;;;;;;5091588;28;20446;-46
2022/11/18 09:55:14;;;;;;;7.10;5.60;;;6.10;99.90;;;;;;5091288;28;20437;-46
2022/11/18 09:57:46;;;;;;;9.77;7.00;;;6.20;99.90;;;;;;5091454;28;20556;-47
2022/11/18 10:00:20;;;;;;;4.90;3.83;;;6.30;99.90;;;;;;5090979;28;20435;-47
2022/11/18 10:02:58;;;;;;;4.77;4.33;;;6.00;99.90;;;;;;5091503;28;20532;-47
2022/11/18 10:05:27;;;;;;;5.20;4.77;;;6.00;99.90;;;;;;5091174;28;21002;-48
2022/11/18 10:08:20;;;;;;;5.43;4.93;;;6.00;99.90;;;;;;5091182;28;20606;-46
2022/11/18 10:10:56;;;;;;;6.93;5.10;;;6.10;99.90;;;;;;5091241;28;20977;-47
2022/11/18 10:13:34;;;;;;;11.63;6.20;;;6.30;99.90;;;;;;5091065;28;20465;-46
2022/11/18 10:16:13;;;;;;;6.83;5.60;;;6.30;99.90;;;;;;5091167;28;20573;-46
2022/11/18 10:18:47;;;;;;;6.20;4.50;;;6.30;99.90;;;;;;5091409;28;20793;-46
2022/11/18 10:21:24;;;;;;;4.50;3.80;;;6.30;99.90;;;;;;5091064;28;20435;-50
2022/11/18 10:23:53;;;;;;;6.53;4.47;;;6.40;99.90;;;;;;5090956;28;20879;-46
2022/11/18 10:26:35;;;;;;;3.57;3.07;;;6.40;99.90;;;;;;5090830;28;20581;-47
2022/11/18 10:29:02;;;;;;;5.97;3.93;;;6.50;99.90;;;;;;5091329;28;20574;-46
2022/11/18 10:31:30;;;;;;;4.70;3.40;;;6.50;99.90;;;;;;5091254;28;20519;-48
2022/11/18 10:34:00;;;;;;;5.40;3.90;;;6.50;99.90;;;;;;5090877;28;20436;-47
2022/11/18 10:36:29;;;;;;;8.00;4.87;;;6.60;99.90;;;;;;5091776;28;20470;-47
2022/11/18 10:39:07;;;;;;;8.40;5.83;;;6.50;99.90;;;;;;5094986;28;20446;-46
2022/11/18 10:41:46;;;;;;;7.17;5.50;;;6.40;99.90;;;;;;5094877;28;20530;-46
2022/11/18 10:44:38;;;;;;;5.30;4.80;;;6.40;99.90;;;;;;5098246;28;20446;-47
2022/11/18 10:47:27;;;;;;;6.20;4.77;;;6.60;99.90;;;;;;5081388;28;20542;-49
2022/11/18 10:49:55;;;;;;;5.80;5.27;;;6.60;99.90;;;;;;5103782;28;21030;-47
2022/11/18 10:52:22;;;;;;;6.10;5.50;;;6.70;99.90;;;;;;5106623;28;20443;-46
2022/11/18 10:55:09;;;;;;;7.83;7.03;;;6.70;99.90;;;;;;5114709;28;20473;-49
2022/11/18 10:57:42;;;;;;;8.00;7.20;;;6.70;99.90;;;;;;5108612;28;20447;-47
2022/11/18 11:00:37;;;;;;;6.23;5.23;;;6.70;99.90;;;;;;5106139;28;20431;-46
2022/11/18 11:03:32;;;;;;;7.30;5.37;;;6.60;99.90;;;;;;5112522;28;20789;-46
2022/11/18 11:06:39;;;;;;;6.77;4.80;;;6.70;99.90;;;;;;5095464;28;20486;-46
2022/11/18 11:09:08;;;;;;;5.73;4.73;;;6.60;99.90;;;;;;5094358;28;20562;-47
2022/11/18 11:11:38;;;;;;;4.80;4.30;;;6.60;99.90;;;;;;5101562;28;20530;-47
2022/11/18 11:14:19;;;;;;;4.53;4.13;;;6.60;99.90;;;;;;5108097;28;21000;-47
2022/11/18 11:16:52;;;;;;;5.17;4.00;;;6.60;99.90;;;;;;5096849;28;20455;-46
2022/11/18 11:19:24;;;;;;;5.90;4.10;;;6.60;99.90;;;;;;5094640;28;20440;-49
2022/11/18 11:21:51;;;;;;;4.60;4.20;;;6.60;99.90;;;;;;5093592;28;20984;-47
2022/11/18 11:24:19;;;;;;;4.23;3.63;;;6.50;99.90;;;;;;5086713;28;20524;-47
2022/11/18 11:26:53;;;;;;;6.50;4.70;;;6.60;99.90;;;;;;5093215;28;20481;-47
2022/11/18 11:29:35;;;;;;;6.07;4.47;;;6.60;99.90;;;;;;5084375;28;20487;-46
2022/11/18 11:32:10;;;;;;;3.90;3.50;;;6.60;99.90;;;;;;5083670;28;20475;-47
2022/11/18 11:34:46;;;;;;;4.97;3.57;;;6.60;99.90;;;;;;5075414;28;20450;-47
2022/11/18 11:37:24;;;;;;;4.50;3.70;;;6.30;99.90;;;;;;5087136;28;20470;-47
2022/11/18 11:40:02;;;;;;;6.50;5.90;;;6.30;99.90;;;;;;5084497;28;20527;-48
2022/11/18 11:42:43;;;;;;;4.17;3.83;;;6.40;99.90;;;;;;5087928;28;20474;-47
2022/11/18 11:45:19;;;;;;;4.33;3.43;;;6.30;99.90;;;;;;5081854;28;20565;-47
2022/11/18 11:48:09;;;;;;;3.10;2.80;;;6.40;99.90;;;;;;5081097;28;20811;-47
2022/11/18 11:50:54;;;;;;;4.13;3.07;;;6.50;99.90;;;;;;5079932;28;20559;-46
2022/11/18 11:53:32;;;;;;;3.40;3.10;;;6.50;99.90;;;;;;5071757;28;20433;-46
2022/11/18 11:56:10;;;;;;;2.60;2.40;;;6.50;99.90;;;;;;5071529;28;20610;-49
2022/11/18 11:58:55;;;;;;;12.03;8.57;;;6.60;99.90;;;;;;5071172;28;20983;-47
2022/11/18 12:01:30;;;;;;;5.43;3.73;;;6.70;99.90;;;;;;5075085;28;20516;-47
2022/11/18 12:04:10;;;;;;;5.50;3.97;;;6.80;99.90;;;;;;5083626;28;20438;-47
2022/11/18 12:06:41;;;;;;;3.60;3.27;;;6.90;99.90;;;;;;5084403;28;20458;-48
2022/11/18 12:09:15;;;;;;;4.40;3.87;;;7.00;99.90;;;;;;5086722;28;20479;-47
2022/11/18 12:11:47;;;;;;;7.13;4.60;;;7.00;99.90;;;;;;5092840;28;20533;-47
2022/11/18 12:14:27;;;;;;;5.97;5.37;;;7.10;99.90;;;;;;5102619;28;20818;-47
2022/11/18 12:17:00;;;;;;;3.87;3.57;;;7.10;99.90;;;;;;5109286;28;20469;-46
2022/11/18 12:19:27;;;;;;;4.03;3.60;;;7.10;99.90;;;;;;5097545;28;20444;-47
2022/11/18 12:22:05;;;;;;;4.07;3.67;;;6.90;99.90;;;;;;5089585;28;20879;-47
2022/11/18 12:24:35;;;;;;;4.20;3.80;;;7.00;99.90;;;;;;5084128;28;20462;-48
2022/11/18 12:27:05;;;;;;;4.60;3.50;;;7.00;99.90;;;;;;5082661;28;20474;-48
2022/11/18 12:29:55;;;;;;;4.47;4.17;;;7.10;99.90;;;;;;5091757;28;20478;-47
2022/11/18 12:32:31;;;;;;;5.83;3.90;;;7.10;99.90;;;;;;5099491;28;20545;-48
2022/11/18 12:35:04;;;;;;;7.30;4.50;;;7.20;99.90;;;;;;5087182;28;20875;-48
2022/11/18 12:37:57;;;;;;;17.00;13.60;;;7.20;99.90;;;;;;5100634;28;20531;-48
2022/11/18 12:40:37;;;;;;;11.33;8.20;;;7.20;99.90;;;;;;5111063;28;20439;-50
2022/11/18 12:45:53;;;;;;;8.97;7.27;;;7.30;99.90;;;;;;5112127;28;20442;-48
2022/11/18 12:48:44;;;;;;;8.30;5.10;;;7.30;99.90;;;;;;5111582;28;20447;-48
2022/11/18 12:51:45;;;;;;;4.17;3.87;;;7.40;99.90;;;;;;5111740;28;20504;-50
2022/11/18 12:54:36;;;;;;;6.07;4.53;;;7.40;99.90;;;;;;5112589;28;20479;-47
2022/11/18 12:57:13;;;;;;;5.20;4.40;;;7.40;99.90;;;;;;5112546;28;20587;-47
2022/11/18 12:59:40;;;;;;;5.83;4.70;;;7.40;99.90;;;;;;5112206;28;20541;-46
2022/11/18 13:02:20;;;;;;;4.70;4.30;;;7.50;99.90;;;;;;5112484;28;20796;-47
2022/11/18 13:05:04;;;;;;;4.60;4.20;;;7.60;99.90;;;;;;5112379;28;20439;-46
2022/11/18 13:10:24;;;;;;;7.10;5.23;;;7.50;99.90;;;;;;5112348;28;20467;-46
2022/11/18 13:12:52;;;;;;;4.53;4.17;;;7.50;99.90;;;;;;5112653;28;20525;-44
2022/11/18 13:18:13;;;;;;;6.87;4.20;;;7.40;99.90;;;;;;5112268;28;20414;-46
2022/11/18 13:20:41;;;;;;;3.90;3.60;;;7.40;99.90;;;;;;5112255;28;20437;-47
2022/11/18 13:26:18;;;;;;;9.10;7.80;;;7.10;99.90;;;;;;5075297;28;20553;-46
2022/11/18 13:28:56;;;;;;;6.90;6.03;;;7.10;99.90;;;;;;5070457;28;20443;-51
2022/11/18 13:31:30;;;;;;;5.60;5.00;;;7.20;99.90;;;;;;5070142;28;20524;-47
2022/11/18 13:34:01;;;;;;;6.40;5.63;;;7.40;99.90;;;;;;5069966;28;20527;-47
2022/11/18 13:36:28;;;;;;;4.83;4.33;;;7.30;99.90;;;;;;5070302;28;20480;-47
2022/11/18 13:39:00;;;;;;;4.63;4.07;;;7.20;99.90;;;;;;5086398;28;20546;-46
2022/11/18 13:41:32;;;;;;;4.10;3.70;;;7.20;99.90;;;;;;5091139;28;20853;-48
2022/11/18 13:44:12;;;;;;;5.53;4.17;;;7.30;99.90;;;;;;5090636;28;20676;-46